sensor_id;sensor_type;location;lat;lon;timestamp;pressure;altitude;pressure_sealevel;temperature;humidity
3917;BME280;1973;50.518;7.318;2024-03-06T00:01:04;101071.53;;;8.15;100.00
3917;BME280;1973;50.518;7.318;2024-03-06T00:03:31;101078.91;;;8.14;100.00
3917;BME280;1973;50.518;7.318;2024-03-06T00:05:57;101067.28;;;8.12;100.00
3917;BME280;1973;50.518;7.318;2024-03-06T00:08:24;101073.97;;;8.10;100.00
3917;BME280;1973;50.518;7.318;2024-03-06T00:10:50;101083.44;;;8.07;100.00
3917;BME280;1973;50.518;7.318;2024-03-06T00:13:17;101078.34;;;8.04;100.00
3917;BME280;1973;50.518;7.318;2024-03-06T00:15:43;101082.53;;;8.00;100.00
3917;BME280;1973;50.518;7.318;2024-03-06T00:18:10;101084.59;;;7.98;100.00
3917;BME280;1973;50.518;7.318;2024-03-06T00:20:37;101094.28;;;7.94;100.00
3917;BME280;1973;50.518;7.318;2024-03-06T00:23:04;101087.47;;;7.90;100.00
3917;BME280;1973;50.518;7.318;2024-03-06T00:25:30;101095.00;;;7.88;100.00
3917;BME280;1973;50.518;7.318;2024-03-06T00:27:57;101094.75;;;7.83;100.00
3917;BME280;1973;50.518;7.318;2024-03-06T00:30:23;101105.03;;;7.81;100.00
3917;BME280;1973;50.518;7.318;2024-03-06T00:32:50;101101.81;;;7.77;100.00
3917;BME280;1973;50.518;7.318;2024-03-06T00:35:17;101098.63;;;7.74;100.00
3917;BME280;1973;50.518;7.318;2024-03-06T00:37:43;101105.97;;;7.73;100.00
3917;BME280;1973;50.518;7.318;2024-03-06T00:40:11;101104.47;;;7.71;100.00
3917;BME280;1973;50.518;7.318;2024-03-06T00:42:38;101113.75;;;7.70;100.00
3917;BME280;1973;50.518;7.318;2024-03-06T00:45:07;101113.94;;;7.68;100.00
3917;BME280;1973;50.518;7.318;2024-03-06T00:47:33;101110.34;;;7.68;100.00
3917;BME280;1973;50.518;7.318;2024-03-06T00:50:01;101119.59;;;7.67;100.00
3917;BME280;1973;50.518;7.318;2024-03-06T00:52:27;101126.09;;;7.66;100.00
3917;BME280;1973;50.518;7.318;2024-03-06T00:54:54;101129.53;;;7.68;100.00
3917;BME280;1973;50.518;7.318;2024-03-06T00:57:21;101135.66;;;7.70;100.00
3917;BME280;1973;50.518;7.318;2024-03-06T00:59:47;101133.94;;;7.69;100.00
3917;BME280;1973;50.518;7.318;2024-03-06T01:02:14;101140.50;;;7.68;100.00
3917;BME280;1973;50.518;7.318;2024-03-06T01:04:40;101139.81;;;7.66;100.00
3917;BME280;1973;50.518;7.318;2024-03-06T01:07:07;101142.75;;;7.64;100.00
3917;BME280;1973;50.518;7.318;2024-03-06T01:09:34;101147.75;;;7.61;100.00
3917;BME280;1973;50.518;7.318;2024-03-06T01:12:00;101154.66;;;7.57;100.00
3917;BME280;1973;50.518;7.318;2024-03-06T01:14:27;101146.81;;;7.54;100.00
3917;BME280;1973;50.518;7.318;2024-03-06T01:16:53;101152.84;;;7.49;100.00
3917;BME280;1973;50.518;7.318;2024-03-06T01:19:20;101155.75;;;7.48;100.00
3917;BME280;1973;50.518;7.318;2024-03-06T01:21:47;101158.88;;;7.45;100.00
3917;BME280;1973;50.518;7.318;2024-03-06T01:24:14;101158.22;;;7.43;100.00
3917;BME280;1973;50.518;7.318;2024-03-06T01:26:41;101157.53;;;7.41;100.00
3917;BME280;1973;50.518;7.318;2024-03-06T01:29:07;101164.63;;;7.35;100.00
3917;BME280;1973;50.518;7.318;2024-03-06T01:31:34;101170.66;;;7.30;100.00
3917;BME280;1973;50.518;7.318;2024-03-06T01:34:01;101164.88;;;7.25;100.00
3917;BME280;1973;50.518;7.318;2024-03-06T01:36:27;101171.75;;;7.21;100.00
3917;BME280;1973;50.518;7.318;2024-03-06T01:38:54;101181.03;;;7.20;100.00
3917;BME280;1973;50.518;7.318;2024-03-06T01:41:20;101174.88;;;7.18;100.00
3917;BME280;1973;50.518;7.318;2024-03-06T01:43:47;101174.88;;;7.18;100.00
3917;BME280;1973;50.518;7.318;2024-03-06T01:46:13;101181.19;;;7.19;100.00
3917;BME280;1973;50.518;7.318;2024-03-06T01:48:40;101167.69;;;7.17;100.00
3917;BME280;1973;50.518;7.318;2024-03-06T01:51:09;101177.97;;;7.15;100.00
3917;BME280;1973;50.518;7.318;2024-03-06T01:53:36;101180.25;;;7.12;100.00
3917;BME280;1973;50.518;7.318;2024-03-06T01:56:04;101173.25;;;7.09;100.00
3917;BME280;1973;50.518;7.318;2024-03-06T01:58:32;101172.78;;;7.06;100.00
3917;BME280;1973;50.518;7.318;2024-03-06T02:01:00;101171.22;;;7.03;100.00
3917;BME280;1973;50.518;7.318;2024-03-06T02:03:29;101175.84;;;7.03;100.00
3917;BME280;1973;50.518;7.318;2024-03-06T02:05:56;101170.75;;;7.00;100.00
3917;BME280;1973;50.518;7.318;2024-03-06T02:08:24;101171.78;;;6.99;100.00
3917;BME280;1973;50.518;7.318;2024-03-06T02:10:51;101174.34;;;7.00;100.00
3917;BME280;1973;50.518;7.318;2024-03-06T02:13:17;101169.03;;;6.99;100.00
3917;BME280;1973;50.518;7.318;2024-03-06T02:15:44;101170.94;;;6.98;100.00
3917;BME280;1973;50.518;7.318;2024-03-06T02:18:11;101171.97;;;6.97;100.00
3917;BME280;1973;50.518;7.318;2024-03-06T02:20:38;101167.72;;;6.95;100.00
3917;BME280;1973;50.518;7.318;2024-03-06T02:23:08;101172.34;;;6.94;100.00
3917;BME280;1973;50.518;7.318;2024-03-06T02:25:35;101176.09;;;6.93;100.00
3917;BME280;1973;50.518;7.318;2024-03-06T02:28:02;101176.28;;;6.92;100.00
3917;BME280;1973;50.518;7.318;2024-03-06T02:30:28;101173.75;;;6.90;100.00
3917;BME280;1973;50.518;7.318;2024-03-06T02:33:04;101169.28;;;6.89;100.00
3917;BME280;1973;50.518;7.318;2024-03-06T02:35:33;101165.69;;;6.89;100.00
3917;BME280;1973;50.518;7.318;2024-03-06T02:38:01;101161.09;;;6.89;100.00
3917;BME280;1973;50.518;7.318;2024-03-06T02:40:29;101167.59;;;6.88;100.00
3917;BME280;1973;50.518;7.318;2024-03-06T02:42:56;101166.06;;;6.85;100.00
3917;BME280;1973;50.518;7.318;2024-03-06T02:45:22;101167.28;;;6.83;100.00
3917;BME280;1973;50.518;7.318;2024-03-06T02:47:49;101171.22;;;6.80;100.00
3917;BME280;1973;50.518;7.318;2024-03-06T02:50:16;101164.41;;;6.76;100.00
3917;BME280;1973;50.518;7.318;2024-03-06T02:52:42;101175.72;;;6.73;100.00
3917;BME280;1973;50.518;7.318;2024-03-06T02:55:09;101176.25;;;6.69;100.00
3917;BME280;1973;50.518;7.318;2024-03-06T02:57:36;101177.47;;;6.66;100.00
3917;BME280;1973;50.518;7.318;2024-03-06T03:00:03;101170.50;;;6.64;100.00
3917;BME280;1973;50.518;7.318;2024-03-06T03:02:31;101178.22;;;6.60;100.00
3917;BME280;1973;50.518;7.318;2024-03-06T03:04:57;101179.59;;;6.56;100.00
3917;BME280;1973;50.518;7.318;2024-03-06T03:07:24;101186.31;;;6.54;100.00
3917;BME280;1973;50.518;7.318;2024-03-06T03:09:50;101192.09;;;6.51;100.00
3917;BME280;1973;50.518;7.318;2024-03-06T03:12:17;101195.22;;;6.48;100.00
3917;BME280;1973;50.518;7.318;2024-03-06T03:14:44;101198.31;;;6.45;100.00
3917;BME280;1973;50.518;7.318;2024-03-06T03:17:10;101200.38;;;6.43;100.00
3917;BME280;1973;50.518;7.318;2024-03-06T03:19:37;101204.31;;;6.40;100.00
3917;BME280;1973;50.518;7.318;2024-03-06T03:22:06;101213.56;;;6.39;100.00
3917;BME280;1973;50.518;7.318;2024-03-06T03:24:34;101215.44;;;6.39;100.00
3917;BME280;1973;50.518;7.318;2024-03-06T03:27:00;101224.50;;;6.39;100.00
3917;BME280;1973;50.518;7.318;2024-03-06T03:29:27;101220.91;;;6.39;100.00
3917;BME280;1973;50.518;7.318;2024-03-06T03:31:53;101233.53;;;6.40;100.00
3917;BME280;1973;50.518;7.318;2024-03-06T03:34:20;101240.06;;;6.30;100.00
3917;BME280;1973;50.518;7.318;2024-03-06T03:36:47;101227.78;;;6.26;100.00
3917;BME280;1973;50.518;7.318;2024-03-06T03:39:15;101237.38;;;6.22;100.00
3917;BME280;1973;50.518;7.318;2024-03-06T03:41:46;101233.63;;;6.23;100.00
3917;BME280;1973;50.518;7.318;2024-03-06T03:44:17;101227.13;;;6.24;100.00
3917;BME280;1973;50.518;7.318;2024-03-06T03:46:43;101228.31;;;6.22;100.00
3917;BME280;1973;50.518;7.318;2024-03-06T03:49:10;101228.50;;;6.20;100.00
3917;BME280;1973;50.518;7.318;2024-03-06T03:51:38;101225.09;;;6.18;100.00
3917;BME280;1973;50.518;7.318;2024-03-06T03:54:05;101231.56;;;6.17;100.00
3917;BME280;1973;50.518;7.318;2024-03-06T03:56:32;101229.19;;;6.14;100.00
3917;BME280;1973;50.518;7.318;2024-03-06T03:58:59;101239.47;;;6.12;100.00
3917;BME280;1973;50.518;7.318;2024-03-06T04:01:26;101234.16;;;6.11;100.00
3917;BME280;1973;50.518;7.318;2024-03-06T04:03:53;101241.34;;;6.12;100.00
3917;BME280;1973;50.518;7.318;2024-03-06T04:06:19;101245.94;;;6.11;100.00
3917;BME280;1973;50.518;7.318;2024-03-06T04:08:46;101257.25;;;6.08;100.00
3917;BME280;1973;50.518;7.318;2024-03-06T04:11:12;101257.94;;;6.02;100.00
3917;BME280;1973;50.518;7.318;2024-03-06T04:13:39;101254.03;;;5.97;100.00
3917;BME280;1973;50.518;7.318;2024-03-06T04:16:06;101263.75;;;5.99;100.00
3917;BME280;1973;50.518;7.318;2024-03-06T04:18:34;101261.69;;;6.01;100.00
3917;BME280;1973;50.518;7.318;2024-03-06T04:21:07;101263.41;;;6.02;100.00
3917;BME280;1973;50.518;7.318;2024-03-06T04:23:33;101265.09;;;6.03;100.00
3917;BME280;1973;50.518;7.318;2024-03-06T04:26:00;101261.50;;;6.03;100.00
3917;BME280;1973;50.518;7.318;2024-03-06T04:28:27;101263.06;;;6.05;100.00
3917;BME280;1973;50.518;7.318;2024-03-06T04:30:53;101264.75;;;6.06;100.00
3917;BME280;1973;50.518;7.318;2024-03-06T04:33:20;101269.88;;;6.09;100.00
3917;BME280;1973;50.518;7.318;2024-03-06T04:35:47;101264.41;;;6.09;100.00
3917;BME280;1973;50.518;7.318;2024-03-06T04:38:13;101263.38;;;6.10;100.00
3917;BME280;1973;50.518;7.318;2024-03-06T04:40:40;101261.34;;;6.12;100.00
3917;BME280;1973;50.518;7.318;2024-03-06T04:43:07;101269.53;;;6.12;100.00
3917;BME280;1973;50.518;7.318;2024-03-06T04:45:33;101270.38;;;6.13;100.00
3917;BME280;1973;50.518;7.318;2024-03-06T04:48:00;101272.44;;;6.11;100.00
3917;BME280;1973;50.518;7.318;2024-03-06T04:50:27;101278.59;;;6.13;100.00
3917;BME280;1973;50.518;7.318;2024-03-06T04:52:54;101271.41;;;6.12;100.00
3917;BME280;1973;50.518;7.318;2024-03-06T04:55:20;101273.28;;;6.11;100.00
3917;BME280;1973;50.518;7.318;2024-03-06T04:57:49;101282.50;;;6.10;100.00
3917;BME280;1973;50.518;7.318;2024-03-06T05:00:16;101288.16;;;6.09;100.00
3917;BME280;1973;50.518;7.318;2024-03-06T05:02:45;101288.69;;;6.04;100.00
3917;BME280;1973;50.518;7.318;2024-03-06T05:05:29;101298.59;;;5.97;100.00
3917;BME280;1973;50.518;7.318;2024-03-06T05:08:13;101304.94;;;5.90;100.00
3917;BME280;1973;50.518;7.318;2024-03-06T05:11:00;101307.66;;;5.90;100.00
3917;BME280;1973;50.518;7.318;2024-03-06T05:13:45;101313.13;;;5.90;100.00
3917;BME280;1973;50.518;7.318;2024-03-06T05:16:29;101318.09;;;5.86;100.00
3917;BME280;1973;50.518;7.318;2024-03-06T05:19:13;101308.88;;;5.87;100.00
3917;BME280;1973;50.518;7.318;2024-03-06T05:21:59;101320.31;;;5.91;100.00
3917;BME280;1973;50.518;7.318;2024-03-06T05:24:44;101337.56;;;5.91;100.00
3917;BME280;1973;50.518;7.318;2024-03-06T05:27:27;101325.94;;;5.89;100.00
3917;BME280;1973;50.518;7.318;2024-03-06T05:30:11;101334.97;;;5.90;100.00
3917;BME280;1973;50.518;7.318;2024-03-06T05:32:56;101337.56;;;5.91;100.00
3917;BME280;1973;50.518;7.318;2024-03-06T05:35:40;101344.19;;;5.88;100.00
3917;BME280;1973;50.518;7.318;2024-03-06T05:38:24;101338.19;;;5.85;100.00
3917;BME280;1973;50.518;7.318;2024-03-06T05:41:08;101347.41;;;5.84;100.00
3917;BME280;1973;50.518;7.318;2024-03-06T05:43:52;101349.63;;;5.80;100.00
3917;BME280;1973;50.518;7.318;2024-03-06T05:46:36;101353.56;;;5.78;100.00
3917;BME280;1973;50.518;7.318;2024-03-06T05:49:20;101362.09;;;5.75;100.00
3917;BME280;1973;50.518;7.318;2024-03-06T05:52:05;101346.72;;;5.74;100.00
3917;BME280;1973;50.518;7.318;2024-03-06T05:54:49;101364.13;;;5.73;100.00
3917;BME280;1973;50.518;7.318;2024-03-06T05:57:33;101361.75;;;5.70;100.00
3917;BME280;1973;50.518;7.318;2024-03-06T06:00:17;101366.19;;;5.71;100.00
3917;BME280;1973;50.518;7.318;2024-03-06T06:02:45;101373.53;;;5.70;100.00
3917;BME280;1973;50.518;7.318;2024-03-06T06:05:12;101372.34;;;5.73;100.00
3917;BME280;1973;50.518;7.318;2024-03-06T06:07:44;101368.94;;;5.71;100.00
3917;BME280;1973;50.518;7.318;2024-03-06T06:10:10;101383.25;;;5.73;100.00
3917;BME280;1973;50.518;7.318;2024-03-06T06:12:37;101383.97;;;5.75;100.00
3917;BME280;1973;50.518;7.318;2024-03-06T06:15:04;101383.81;;;5.76;100.00
3917;BME280;1973;50.518;7.318;2024-03-06T06:17:30;101387.34;;;5.77;100.00
3917;BME280;1973;50.518;7.318;2024-03-06T06:19:57;101392.81;;;5.77;100.00
3917;BME280;1973;50.518;7.318;2024-03-06T06:22:24;101397.13;;;5.79;100.00
3917;BME280;1973;50.518;7.318;2024-03-06T06:24:50;101388.06;;;5.79;100.00
3917;BME280;1973;50.518;7.318;2024-03-06T06:27:17;101401.53;;;5.80;100.00
3917;BME280;1973;50.518;7.318;2024-03-06T06:29:44;101401.72;;;5.79;100.00
3917;BME280;1973;50.518;7.318;2024-03-06T06:32:11;101407.19;;;5.79;100.00
3917;BME280;1973;50.518;7.318;2024-03-06T06:34:37;101421.69;;;5.71;100.00
3917;BME280;1973;50.518;7.318;2024-03-06T06:37:04;101423.22;;;5.58;100.00
3917;BME280;1973;50.518;7.318;2024-03-06T06:39:30;101423.53;;;5.55;100.00
3917;BME280;1973;50.518;7.318;2024-03-06T06:42:00;101428.81;;;5.48;100.00
3917;BME280;1973;50.518;7.318;2024-03-06T06:44:27;101430.00;;;5.46;100.00
3917;BME280;1973;50.518;7.318;2024-03-06T06:46:54;101434.25;;;5.40;100.00
3917;BME280;1973;50.518;7.318;2024-03-06T06:49:20;101435.78;;;5.34;100.00
3917;BME280;1973;50.518;7.318;2024-03-06T06:51:47;101443.44;;;5.31;100.00
3917;BME280;1973;50.518;7.318;2024-03-06T06:54:15;101451.09;;;5.27;100.00
3917;BME280;1973;50.518;7.318;2024-03-06T06:56:42;101447.19;;;5.30;100.00
3917;BME280;1973;50.518;7.318;2024-03-06T06:59:08;101457.44;;;5.36;100.00
3917;BME280;1973;50.518;7.318;2024-03-06T07:01:35;101448.59;;;5.42;100.00
3917;BME280;1973;50.518;7.318;2024-03-06T07:04:02;101454.91;;;5.51;100.00
3917;BME280;1973;50.518;7.318;2024-03-06T07:06:28;101452.53;;;5.56;100.00
3917;BME280;1973;50.518;7.318;2024-03-06T07:08:55;101450.19;;;5.61;100.00
3917;BME280;1973;50.518;7.318;2024-03-06T07:11:21;101463.16;;;5.67;100.00
3917;BME280;1973;50.518;7.318;2024-03-06T07:13:48;101460.94;;;5.70;100.00
3917;BME280;1973;50.518;7.318;2024-03-06T07:16:15;101466.94;;;5.74;100.00
3917;BME280;1973;50.518;7.318;2024-03-06T07:18:41;101461.81;;;5.79;100.00
3917;BME280;1973;50.518;7.318;2024-03-06T07:21:08;101463.88;;;5.85;100.00
3917;BME280;1973;50.518;7.318;2024-03-06T07:23:35;101463.25;;;5.91;100.00
3917;BME280;1973;50.518;7.318;2024-03-06T07:26:01;101467.16;;;5.97;100.00
3917;BME280;1973;50.518;7.318;2024-03-06T07:28:28;101463.94;;;6.01;100.00
3917;BME280;1973;50.518;7.318;2024-03-06T07:30:54;101464.97;;;6.08;100.00
3917;BME280;1973;50.518;7.318;2024-03-06T07:33:21;101472.47;;;6.14;100.00
3917;BME280;1973;50.518;7.318;2024-03-06T07:35:48;101464.78;;;6.18;100.00
3917;BME280;1973;50.518;7.318;2024-03-06T07:38:14;101464.28;;;6.22;100.00
3917;BME280;1973;50.518;7.318;2024-03-06T07:40:41;101466.16;;;6.22;100.00
3917;BME280;1973;50.518;7.318;2024-03-06T07:43:07;101468.38;;;6.26;100.00
3917;BME280;1973;50.518;7.318;2024-03-06T07:45:35;101468.03;;;6.29;100.00
3917;BME280;1973;50.518;7.318;2024-03-06T07:48:01;101478.97;;;6.29;100.00
3917;BME280;1973;50.518;7.318;2024-03-06T07:50:28;101471.47;;;6.31;100.00
3917;BME280;1973;50.518;7.318;2024-03-06T07:52:55;101475.22;;;6.30;100.00
3917;BME280;1973;50.518;7.318;2024-03-06T07:55:21;101476.94;;;6.31;100.00
3917;BME280;1973;50.518;7.318;2024-03-06T07:57:48;101489.41;;;6.34;100.00
3917;BME280;1973;50.518;7.318;2024-03-06T08:00:15;101480.84;;;6.37;100.00
3917;BME280;1973;50.518;7.318;2024-03-06T08:02:41;101485.47;;;6.36;100.00
3917;BME280;1973;50.518;7.318;2024-03-06T08:05:10;101487.19;;;6.38;100.00
3917;BME280;1973;50.518;7.318;2024-03-06T08:07:39;101488.69;;;6.40;100.00
3917;BME280;1973;50.518;7.318;2024-03-06T08:10:09;101493.00;;;6.43;100.00
3917;BME280;1973;50.518;7.318;2024-03-06T08:12:35;101494.53;;;6.45;100.00
3917;BME280;1973;50.518;7.318;2024-03-06T08:15:02;101493.16;;;6.49;100.00
3917;BME280;1973;50.518;7.318;2024-03-06T08:17:29;101498.13;;;6.54;100.00
3917;BME280;1973;50.518;7.318;2024-03-06T08:19:56;101501.16;;;6.59;100.00
3917;BME280;1973;50.518;7.318;2024-03-06T08:22:22;101496.41;;;6.61;100.00
3917;BME280;1973;50.518;7.318;2024-03-06T08:24:49;101493.66;;;6.61;100.00
3917;BME280;1973;50.518;7.318;2024-03-06T08:27:15;101511.25;;;6.58;100.00
3917;BME280;1973;50.518;7.318;2024-03-06T08:29:42;101517.94;;;6.64;100.00
3917;BME280;1973;50.518;7.318;2024-03-06T08:32:09;101516.56;;;6.68;100.00
3917;BME280;1973;50.518;7.318;2024-03-06T08:34:35;101523.41;;;6.72;100.00
3917;BME280;1973;50.518;7.318;2024-03-06T08:37:03;101520.47;;;6.73;100.00
3917;BME280;1973;50.518;7.318;2024-03-06T08:39:29;101516.72;;;6.74;100.00
3917;BME280;1973;50.518;7.318;2024-03-06T08:41:56;101536.38;;;6.70;100.00
3917;BME280;1973;50.518;7.318;2024-03-06T08:44:24;101522.69;;;6.62;100.00
3917;BME280;1973;50.518;7.318;2024-03-06T08:46:51;101532.97;;;6.68;100.00
3917;BME280;1973;50.518;7.318;2024-03-06T08:49:17;101526.50;;;6.61;100.00
3917;BME280;1973;50.518;7.318;2024-03-06T08:51:43;101529.53;;;6.58;100.00
3917;BME280;1973;50.518;7.318;2024-03-06T08:54:10;101532.81;;;6.53;100.00
3917;BME280;1973;50.518;7.318;2024-03-06T08:56:43;101531.25;;;6.51;100.00
3917;BME280;1973;50.518;7.318;2024-03-06T08:59:10;101532.13;;;6.51;100.00
3917;BME280;1973;50.518;7.318;2024-03-06T09:01:36;101542.19;;;6.59;100.00
3917;BME280;1973;50.518;7.318;2024-03-06T09:04:03;101551.94;;;6.69;100.00
3917;BME280;1973;50.518;7.318;2024-03-06T09:06:29;101551.06;;;6.77;100.00
3917;BME280;1973;50.518;7.318;2024-03-06T09:08:56;101545.78;;;6.83;100.00
3917;BME280;1973;50.518;7.318;2024-03-06T09:11:23;101544.25;;;6.81;100.00
3917;BME280;1973;50.518;7.318;2024-03-06T09:13:49;101547.66;;;6.83;100.00
3917;BME280;1973;50.518;7.318;2024-03-06T09:16:16;101541.50;;;6.89;100.00
3917;BME280;1973;50.518;7.318;2024-03-06T09:18:44;101540.47;;;6.98;100.00
3917;BME280;1973;50.518;7.318;2024-03-06T09:21:11;101544.88;;;7.07;100.00
3917;BME280;1973;50.518;7.318;2024-03-06T09:23:37;101548.97;;;7.19;100.00
3917;BME280;1973;50.518;7.318;2024-03-06T09:26:04;101544.13;;;7.29;100.00
3917;BME280;1973;50.518;7.318;2024-03-06T09:28:32;101547.19;;;7.43;100.00
3917;BME280;1973;50.518;7.318;2024-03-06T09:30:59;101540.28;;;7.55;100.00
3917;BME280;1973;50.518;7.318;2024-03-06T09:33:26;101546.09;;;7.60;100.00
3917;BME280;1973;50.518;7.318;2024-03-06T09:35:53;101548.09;;;7.66;100.00
3917;BME280;1973;50.518;7.318;2024-03-06T09:38:19;101553.56;;;7.74;100.00
3917;BME280;1973;50.518;7.318;2024-03-06T09:40:46;101552.50;;;7.83;100.00
3917;BME280;1973;50.518;7.318;2024-03-06T09:43:13;101551.22;;;7.94;100.00
3917;BME280;1973;50.518;7.318;2024-03-06T09:45:39;101557.50;;;8.02;100.00
3917;BME280;1973;50.518;7.318;2024-03-06T09:48:08;101561.56;;;8.14;100.00
3917;BME280;1973;50.518;7.318;2024-03-06T09:50:35;101562.50;;;8.29;100.00
3917;BME280;1973;50.518;7.318;2024-03-06T09:53:05;101557.09;;;8.44;100.00
3917;BME280;1973;50.518;7.318;2024-03-06T09:55:34;101552.63;;;8.66;100.00
3917;BME280;1973;50.518;7.318;2024-03-06T09:58:01;101550.16;;;8.94;100.00
3917;BME280;1973;50.518;7.318;2024-03-06T10:00:29;101554.91;;;9.14;100.00
3917;BME280;1973;50.518;7.318;2024-03-06T10:02:59;101558.22;;;9.24;100.00
3917;BME280;1973;50.518;7.318;2024-03-06T10:05:27;101554.28;;;9.42;100.00
3917;BME280;1973;50.518;7.318;2024-03-06T10:07:54;101545.25;;;9.62;100.00
3917;BME280;1973;50.518;7.318;2024-03-06T10:10:20;101547.69;;;9.72;100.00
3917;BME280;1973;50.518;7.318;2024-03-06T10:12:49;101543.34;;;9.77;100.00
3917;BME280;1973;50.518;7.318;2024-03-06T10:15:16;101543.94;;;9.94;100.00
3917;BME280;1973;50.518;7.318;2024-03-06T10:17:43;101539.72;;;10.13;100.00
3917;BME280;1973;50.518;7.318;2024-03-06T10:20:20;101550.06;;;10.25;100.00
3917;BME280;1973;50.518;7.318;2024-03-06T10:22:52;101542.94;;;10.52;100.00
3917;BME280;1973;50.518;7.318;2024-03-06T10:25:24;101543.91;;;10.66;100.00
3917;BME280;1973;50.518;7.318;2024-03-06T10:28:06;101546.13;;;10.77;100.00
3917;BME280;1973;50.518;7.318;2024-03-06T10:30:34;101532.19;;;11.06;100.00
3917;BME280;1973;50.518;7.318;2024-03-06T10:33:05;101540.06;;;11.44;100.00
3917;BME280;1973;50.518;7.318;2024-03-06T10:35:32;101539.19;;;11.71;100.00
3917;BME280;1973;50.518;7.318;2024-03-06T10:38:00;101532.28;;;11.95;100.00
3917;BME280;1973;50.518;7.318;2024-03-06T10:40:31;101532.94;;;12.03;100.00
3917;BME280;1973;50.518;7.318;2024-03-06T10:43:02;101529.63;;;12.28;100.00
3917;BME280;1973;50.518;7.318;2024-03-06T10:45:40;101534.56;;;12.52;100.00
3917;BME280;1973;50.518;7.318;2024-03-06T10:48:09;101531.81;;;12.52;100.00
3917;BME280;1973;50.518;7.318;2024-03-06T10:50:40;101529.47;;;12.62;100.00
3917;BME280;1973;50.518;7.318;2024-03-06T10:53:11;101537.13;;;12.86;100.00
3917;BME280;1973;50.518;7.318;2024-03-06T10:55:42;101535.22;;;13.13;100.00
3917;BME280;1973;50.518;7.318;2024-03-06T10:58:11;101535.44;;;13.25;100.00
3917;BME280;1973;50.518;7.318;2024-03-06T11:00:40;101532.88;;;13.30;100.00
3917;BME280;1973;50.518;7.318;2024-03-06T11:03:09;101532.22;;;13.41;100.00
3917;BME280;1973;50.518;7.318;2024-03-06T11:05:42;101538.78;;;13.53;100.00
3917;BME280;1973;50.518;7.318;2024-03-06T11:08:10;101540.00;;;13.63;100.00
3917;BME280;1973;50.518;7.318;2024-03-06T11:10:39;101530.69;;;13.58;100.00
3917;BME280;1973;50.518;7.318;2024-03-06T11:13:23;101536.84;;;13.67;100.00
3917;BME280;1973;50.518;7.318;2024-03-06T11:15:52;101522.09;;;13.79;100.00
3917;BME280;1973;50.518;7.318;2024-03-06T11:23:33;101524.69;;;14.19;100.00
3917;BME280;1973;50.518;7.318;2024-03-06T11:26:02;101528.34;;;14.06;100.00
3917;BME280;1973;50.518;7.318;2024-03-06T11:31:05;101524.06;;;13.65;100.00
3917;BME280;1973;50.518;7.318;2024-03-06T11:33:39;101527.03;;;13.71;100.00
3917;BME280;1973;50.518;7.318;2024-03-06T11:36:26;101524.69;;;14.19;100.00
3917;BME280;1973;50.518;7.318;2024-03-06T11:39:07;101518.56;;;14.48;100.00
3917;BME280;1973;50.518;7.318;2024-03-06T11:44:14;101509.13;;;15.05;100.00
3917;BME280;1973;50.518;7.318;2024-03-06T11:46:49;101506.31;;;15.54;93.90
3917;BME280;1973;50.518;7.318;2024-03-06T11:49:17;101503.28;;;15.92;91.85
3917;BME280;1973;50.518;7.318;2024-03-06T11:51:46;101510.53;;;16.23;88.88
3917;BME280;1973;50.518;7.318;2024-03-06T11:54:13;101501.44;;;16.16;81.51
3917;BME280;1973;50.518;7.318;2024-03-06T11:56:40;101497.06;;;16.38;82.36
3917;BME280;1973;50.518;7.318;2024-03-06T11:59:07;101498.56;;;16.52;82.75
3917;BME280;1973;50.518;7.318;2024-03-06T12:01:34;101489.25;;;16.88;80.82
3917;BME280;1973;50.518;7.318;2024-03-06T12:04:00;101492.28;;;17.22;73.67
3917;BME280;1973;50.518;7.318;2024-03-06T12:06:32;101488.38;;;17.23;64.48
3917;BME280;1973;50.518;7.318;2024-03-06T12:08:58;101492.63;;;17.02;66.15
3917;BME280;1973;50.518;7.318;2024-03-06T12:11:25;101480.38;;;17.38;63.67
3917;BME280;1973;50.518;7.318;2024-03-06T12:13:52;101468.06;;;17.57;61.19
3917;BME280;1973;50.518;7.318;2024-03-06T12:16:18;101471.41;;;17.59;60.30
3917;BME280;1973;50.518;7.318;2024-03-06T12:18:45;101474.78;;;17.84;60.85
3917;BME280;1973;50.518;7.318;2024-03-06T12:21:12;101474.81;;;18.01;58.05
3917;BME280;1973;50.518;7.318;2024-03-06T12:23:42;101475.97;;;17.88;56.94
3917;BME280;1973;50.518;7.318;2024-03-06T12:26:09;101470.59;;;17.59;56.81
3917;BME280;1973;50.518;7.318;2024-03-06T12:28:39;101468.91;;;17.97;58.06
3917;BME280;1973;50.518;7.318;2024-03-06T12:31:06;101470.97;;;17.90;56.92
3917;BME280;1973;50.518;7.318;2024-03-06T12:33:34;101469.78;;;18.15;55.92
3917;BME280;1973;50.518;7.318;2024-03-06T12:36:11;101459.72;;;17.85;52.00
3917;BME280;1973;50.518;7.318;2024-03-06T12:38:37;101464.53;;;18.02;53.96
3917;BME280;1973;50.518;7.318;2024-03-06T12:41:04;101469.50;;;18.28;53.40
3917;BME280;1973;50.518;7.318;2024-03-06T12:43:32;101465.38;;;18.59;52.13
3917;BME280;1973;50.518;7.318;2024-03-06T12:46:01;101469.25;;;18.91;51.32
3917;BME280;1973;50.518;7.318;2024-03-06T12:48:31;101452.03;;;19.16;50.38
3917;BME280;1973;50.518;7.318;2024-03-06T12:50:58;101458.03;;;19.24;50.46
3917;BME280;1973;50.518;7.318;2024-03-06T12:53:32;101447.47;;;19.43;49.56
3917;BME280;1973;50.518;7.318;2024-03-06T12:56:01;101454.41;;;19.62;49.28
3917;BME280;1973;50.518;7.318;2024-03-06T12:58:28;101451.84;;;19.39;47.99
3917;BME280;1973;50.518;7.318;2024-03-06T13:00:57;101454.47;;;19.67;47.91
3917;BME280;1973;50.518;7.318;2024-03-06T13:03:24;101452.41;;;19.41;47.46
3917;BME280;1973;50.518;7.318;2024-03-06T13:05:51;101448.59;;;19.09;46.95
3917;BME280;1973;50.518;7.318;2024-03-06T13:08:18;101444.16;;;19.46;47.29
3917;BME280;1973;50.518;7.318;2024-03-06T13:10:44;101436.81;;;19.62;46.58
3917;BME280;1973;50.518;7.318;2024-03-06T13:13:11;101438.31;;;19.69;46.18
3917;BME280;1973;50.518;7.318;2024-03-06T13:15:38;101443.03;;;19.90;45.85
3917;BME280;1973;50.518;7.318;2024-03-06T13:18:05;101440.78;;;19.87;45.98
3917;BME280;1973;50.518;7.318;2024-03-06T13:20:33;101434.38;;;19.70;45.43
3917;BME280;1973;50.518;7.318;2024-03-06T13:23:00;101436.03;;;19.28;47.08
3917;BME280;1973;50.518;7.318;2024-03-06T13:25:27;101439.13;;;18.93;47.90
3917;BME280;1973;50.518;7.318;2024-03-06T13:27:54;101452.75;;;18.56;49.35